sensor_id;sensor_type;location;lat;lon;timestamp;P1;durP1;ratioP1;P2;durP2;ratioP2
28070;SDS011;15383;48.408;9.968;2023-04-25T00:02:03;33.22;;;12.15;;
28070;SDS011;15383;48.408;9.968;2023-04-25T00:04:28;28.38;;;10.90;;
28070;SDS011;15383;48.408;9.968;2023-04-25T00:06:54;25.30;;;11.27;;
28070;SDS011;15383;48.408;9.968;2023-04-25T00:09:20;20.83;;;10.48;;
28070;SDS011;15383;48.408;9.968;2023-04-25T00:11:47;30.73;;;11.05;;
28070;SDS011;15383;48.408;9.968;2023-04-25T00:14:12;26.05;;;11.38;;
28070;SDS011;15383;48.408;9.968;2023-04-25T00:16:38;29.55;;;11.88;;
28070;SDS011;15383;48.408;9.968;2023-04-25T00:19:04;32.25;;;10.02;;
28070;SDS011;15383;48.408;9.968;2023-04-25T00:21:29;29.08;;;10.45;;
28070;SDS011;15383;48.408;9.968;2023-04-25T00:23:56;29.40;;;10.68;;
28070;SDS011;15383;48.408;9.968;2023-04-25T00:26:22;27.83;;;10.75;;
28070;SDS011;15383;48.408;9.968;2023-04-25T00:28:48;20.60;;;9.55;;
28070;SDS011;15383;48.408;9.968;2023-04-25T00:31:13;23.52;;;10.57;;
28070;SDS011;15383;48.408;9.968;2023-04-25T00:33:39;20.02;;;9.57;;
28070;SDS011;15383;48.408;9.968;2023-04-25T00:36:05;20.27;;;9.88;;
28070;SDS011;15383;48.408;9.968;2023-04-25T00:38:31;21.10;;;10.77;;
28070;SDS011;15383;48.408;9.968;2023-04-25T00:40:57;23.08;;;9.15;;
28070;SDS011;15383;48.408;9.968;2023-04-25T00:43:23;27.90;;;10.75;;
28070;SDS011;15383;48.408;9.968;2023-04-25T00:45:50;22.15;;;9.13;;
28070;SDS011;15383;48.408;9.968;2023-04-25T00:48:17;21.17;;;9.88;;
28070;SDS011;15383;48.408;9.968;2023-04-25T00:50:45;23.95;;;9.82;;
28070;SDS011;15383;48.408;9.968;2023-04-25T00:53:19;21.25;;;9.00;;
28070;SDS011;15383;48.408;9.968;2023-04-25T00:55:49;18.83;;;8.70;;
28070;SDS011;15383;48.408;9.968;2023-04-25T00:58:16;21.65;;;9.25;;
28070;SDS011;15383;48.408;9.968;2023-04-25T01:00:43;20.45;;;8.88;;
28070;SDS011;15383;48.408;9.968;2023-04-25T01:03:10;21.10;;;9.25;;
28070;SDS011;15383;48.408;9.968;2023-04-25T01:05:36;16.85;;;8.07;;
28070;SDS011;15383;48.408;9.968;2023-04-25T01:08:02;23.52;;;9.40;;
28070;SDS011;15383;48.408;9.968;2023-04-25T01:10:28;21.58;;;8.75;;
28070;SDS011;15383;48.408;9.968;2023-04-25T01:12:53;17.95;;;8.50;;
28070;SDS011;15383;48.408;9.968;2023-04-25T01:15:19;20.33;;;9.30;;
28070;SDS011;15383;48.408;9.968;2023-04-25T01:17:45;26.48;;;9.23;;
28070;SDS011;15383;48.408;9.968;2023-04-25T01:20:11;20.13;;;8.70;;
28070;SDS011;15383;48.408;9.968;2023-04-25T01:22:38;16.65;;;8.13;;
28070;SDS011;15383;48.408;9.968;2023-04-25T01:25:04;15.88;;;7.78;;
28070;SDS011;15383;48.408;9.968;2023-04-25T01:27:31;18.55;;;8.05;;
28070;SDS011;15383;48.408;9.968;2023-04-25T01:29:57;23.45;;;8.57;;
28070;SDS011;15383;48.408;9.968;2023-04-25T01:32:23;17.90;;;8.55;;
28070;SDS011;15383;48.408;9.968;2023-04-25T01:34:49;16.23;;;7.78;;
28070;SDS011;15383;48.408;9.968;2023-04-25T01:37:14;15.52;;;7.50;;
28070;SDS011;15383;48.408;9.968;2023-04-25T01:39:41;17.08;;;8.23;;
28070;SDS011;15383;48.408;9.968;2023-04-25T01:42:07;16.52;;;7.72;;
28070;SDS011;15383;48.408;9.968;2023-04-25T01:44:32;19.10;;;7.70;;
28070;SDS011;15383;48.408;9.968;2023-04-25T01:46:58;17.45;;;7.80;;
28070;SDS011;15383;48.408;9.968;2023-04-25T01:49:24;16.52;;;7.20;;
28070;SDS011;15383;48.408;9.968;2023-04-25T01:51:49;19.85;;;8.45;;
28070;SDS011;15383;48.408;9.968;2023-04-25T01:54:15;15.85;;;7.63;;
28070;SDS011;15383;48.408;9.968;2023-04-25T01:56:41;18.30;;;7.60;;
28070;SDS011;15383;48.408;9.968;2023-04-25T01:59:07;20.52;;;7.20;;
28070;SDS011;15383;48.408;9.968;2023-04-25T02:01:33;18.13;;;7.30;;
28070;SDS011;15383;48.408;9.968;2023-04-25T02:03:59;14.55;;;7.00;;
28070;SDS011;15383;48.408;9.968;2023-04-25T02:06:24;17.73;;;7.05;;
28070;SDS011;15383;48.408;9.968;2023-04-25T02:08:50;16.92;;;7.13;;
28070;SDS011;15383;48.408;9.968;2023-04-25T02:11:15;16.45;;;7.18;;
28070;SDS011;15383;48.408;9.968;2023-04-25T02:13:41;12.13;;;6.18;;
28070;SDS011;15383;48.408;9.968;2023-04-25T02:16:06;13.48;;;6.82;;
28070;SDS011;15383;48.408;9.968;2023-04-25T02:18:32;13.80;;;6.28;;
28070;SDS011;15383;48.408;9.968;2023-04-25T02:20:59;19.35;;;6.43;;
28070;SDS011;15383;48.408;9.968;2023-04-25T02:23:26;11.57;;;6.03;;
28070;SDS011;15383;48.408;9.968;2023-04-25T02:25:51;13.27;;;6.82;;
28070;SDS011;15383;48.408;9.968;2023-04-25T02:28:17;18.17;;;7.50;;
28070;SDS011;15383;48.408;9.968;2023-04-25T02:30:43;10.43;;;6.05;;
28070;SDS011;15383;48.408;9.968;2023-04-25T02:33:08;14.18;;;6.60;;
28070;SDS011;15383;48.408;9.968;2023-04-25T02:35:34;13.93;;;6.65;;
28070;SDS011;15383;48.408;9.968;2023-04-25T02:38:00;13.85;;;6.57;;
28070;SDS011;15383;48.408;9.968;2023-04-25T02:40:25;13.32;;;6.30;;
28070;SDS011;15383;48.408;9.968;2023-04-25T02:42:51;16.10;;;5.93;;
28070;SDS011;15383;48.408;9.968;2023-04-25T02:45:16;14.13;;;6.20;;
28070;SDS011;15383;48.408;9.968;2023-04-25T02:47:42;14.40;;;6.50;;
28070;SDS011;15383;48.408;9.968;2023-04-25T02:50:08;13.65;;;6.47;;
28070;SDS011;15383;48.408;9.968;2023-04-25T02:52:33;12.73;;;6.40;;
28070;SDS011;15383;48.408;9.968;2023-04-25T02:54:59;15.27;;;6.07;;
28070;SDS011;15383;48.408;9.968;2023-04-25T02:57:24;14.35;;;6.00;;
28070;SDS011;15383;48.408;9.968;2023-04-25T02:59:50;14.70;;;6.03;;
28070;SDS011;15383;48.408;9.968;2023-04-25T03:02:15;11.85;;;6.45;;
28070;SDS011;15383;48.408;9.968;2023-04-25T03:04:41;11.02;;;5.43;;
28070;SDS011;15383;48.408;9.968;2023-04-25T03:07:07;14.98;;;5.60;;
28070;SDS011;15383;48.408;9.968;2023-04-25T03:09:33;11.02;;;5.35;;
28070;SDS011;15383;48.408;9.968;2023-04-25T03:11:58;9.98;;;5.25;;
28070;SDS011;15383;48.408;9.968;2023-04-25T03:14:24;11.95;;;5.43;;
28070;SDS011;15383;48.408;9.968;2023-04-25T03:16:49;9.77;;;5.53;;
28070;SDS011;15383;48.408;9.968;2023-04-25T03:19:15;8.63;;;5.20;;
28070;SDS011;15383;48.408;9.968;2023-04-25T03:21:42;12.57;;;5.93;;
28070;SDS011;15383;48.408;9.968;2023-04-25T03:24:08;8.43;;;4.93;;
28070;SDS011;15383;48.408;9.968;2023-04-25T03:26:33;11.10;;;5.20;;
28070;SDS011;15383;48.408;9.968;2023-04-25T03:28:59;14.25;;;4.88;;
28070;SDS011;15383;48.408;9.968;2023-04-25T03:31:24;13.27;;;5.93;;
28070;SDS011;15383;48.408;9.968;2023-04-25T03:33:50;9.23;;;5.25;;
28070;SDS011;15383;48.408;9.968;2023-04-25T03:36:15;11.52;;;5.18;;
28070;SDS011;15383;48.408;9.968;2023-04-25T03:38:41;13.10;;;5.43;;
28070;SDS011;15383;48.408;9.968;2023-04-25T03:41:06;12.18;;;5.22;;
28070;SDS011;15383;48.408;9.968;2023-04-25T03:43:33;10.40;;;5.70;;
28070;SDS011;15383;48.408;9.968;2023-04-25T03:45:58;12.57;;;5.43;;
28070;SDS011;15383;48.408;9.968;2023-04-25T03:48:25;10.93;;;4.78;;
28070;SDS011;15383;48.408;9.968;2023-04-25T03:50:51;9.52;;;4.38;;
28070;SDS011;15383;48.408;9.968;2023-04-25T03:53:17;8.52;;;4.45;;
28070;SDS011;15383;48.408;9.968;2023-04-25T03:55:43;12.20;;;4.40;;
28070;SDS011;15383;48.408;9.968;2023-04-25T03:58:09;11.95;;;5.15;;
28070;SDS011;15383;48.408;9.968;2023-04-25T04:00:35;12.07;;;5.00;;
28070;SDS011;15383;48.408;9.968;2023-04-25T04:03:01;10.32;;;4.40;;
28070;SDS011;15383;48.408;9.968;2023-04-25T04:05:26;14.30;;;5.25;;
28070;SDS011;15383;48.408;9.968;2023-04-25T04:07:52;8.75;;;4.47;;
28070;SDS011;15383;48.408;9.968;2023-04-25T04:10:18;10.80;;;5.07;;
28070;SDS011;15383;48.408;9.968;2023-04-25T04:12:43;10.30;;;4.22;;
28070;SDS011;15383;48.408;9.968;2023-04-25T04:15:09;7.20;;;3.70;;
28070;SDS011;15383;48.408;9.968;2023-04-25T04:17:35;9.93;;;4.22;;
28070;SDS011;15383;48.408;9.968;2023-04-25T04:20:01;21.80;;;5.28;;
28070;SDS011;15383;48.408;9.968;2023-04-25T04:22:28;25.75;;;4.72;;
28070;SDS011;15383;48.408;9.968;2023-04-25T04:24:54;25.88;;;4.82;;
28070;SDS011;15383;48.408;9.968;2023-04-25T04:27:21;28.17;;;4.50;;
28070;SDS011;15383;48.408;9.968;2023-04-25T04:29:47;21.33;;;4.18;;
28070;SDS011;15383;48.408;9.968;2023-04-25T04:32:14;17.90;;;4.28;;
28070;SDS011;15383;48.408;9.968;2023-04-25T04:34:40;19.88;;;4.68;;
28070;SDS011;15383;48.408;9.968;2023-04-25T04:37:06;29.52;;;4.10;;
28070;SDS011;15383;48.408;9.968;2023-04-25T04:39:35;13.05;;;4.53;;
28070;SDS011;15383;48.408;9.968;2023-04-25T04:42:01;11.25;;;3.58;;
28070;SDS011;15383;48.408;9.968;2023-04-25T04:44:28;14.40;;;3.00;;
28070;SDS011;15383;48.408;9.968;2023-04-25T04:46:54;18.08;;;3.20;;
28070;SDS011;15383;48.408;9.968;2023-04-25T04:49:20;14.75;;;3.78;;
28070;SDS011;15383;48.408;9.968;2023-04-25T04:51:46;17.30;;;3.90;;
28070;SDS011;15383;48.408;9.968;2023-04-25T04:54:12;10.35;;;3.60;;
28070;SDS011;15383;48.408;9.968;2023-04-25T04:56:38;9.32;;;3.28;;
28070;SDS011;15383;48.408;9.968;2023-04-25T04:59:04;14.07;;;2.60;;
28070;SDS011;15383;48.408;9.968;2023-04-25T05:01:29;8.20;;;3.40;;
28070;SDS011;15383;48.408;9.968;2023-04-25T05:03:55;3.65;;;2.55;;
28070;SDS011;15383;48.408;9.968;2023-04-25T05:06:25;6.75;;;2.90;;
28070;SDS011;15383;48.408;9.968;2023-04-25T05:08:54;13.18;;;3.38;;
28070;SDS011;15383;48.408;9.968;2023-04-25T05:11:21;13.25;;;3.42;;
28070;SDS011;15383;48.408;9.968;2023-04-25T05:13:47;9.13;;;3.92;;
28070;SDS011;15383;48.408;9.968;2023-04-25T05:16:12;4.97;;;2.80;;
28070;SDS011;15383;48.408;9.968;2023-04-25T05:18:38;18.58;;;4.07;;
28070;SDS011;15383;48.408;9.968;2023-04-25T05:21:04;17.83;;;3.65;;
28070;SDS011;15383;48.408;9.968;2023-04-25T05:23:31;24.77;;;3.22;;
28070;SDS011;15383;48.408;9.968;2023-04-25T05:25:57;10.00;;;3.35;;
28070;SDS011;15383;48.408;9.968;2023-04-25T05:28:23;9.00;;;3.00;;
28070;SDS011;15383;48.408;9.968;2023-04-25T05:30:48;11.35;;;3.00;;
28070;SDS011;15383;48.408;9.968;2023-04-25T05:33:14;43.88;;;3.72;;
28070;SDS011;15383;48.408;9.968;2023-04-25T05:35:40;14.55;;;2.60;;
28070;SDS011;15383;48.408;9.968;2023-04-25T05:38:06;9.38;;;3.40;;
28070;SDS011;15383;48.408;9.968;2023-04-25T05:40:31;10.88;;;3.30;;
28070;SDS011;15383;48.408;9.968;2023-04-25T05:42:57;10.82;;;3.17;;
28070;SDS011;15383;48.408;9.968;2023-04-25T05:45:22;15.05;;;2.72;;
28070;SDS011;15383;48.408;9.968;2023-04-25T05:47:48;6.65;;;2.60;;
28070;SDS011;15383;48.408;9.968;2023-04-25T05:50:14;26.00;;;3.17;;
28070;SDS011;15383;48.408;9.968;2023-04-25T05:52:39;4.68;;;2.70;;
28070;SDS011;15383;48.408;9.968;2023-04-25T05:55:05;9.90;;;3.17;;
28070;SDS011;15383;48.408;9.968;2023-04-25T05:57:31;8.23;;;2.33;;
28070;SDS011;15383;48.408;9.968;2023-04-25T05:59:56;15.48;;;3.03;;
28070;SDS011;15383;48.408;9.968;2023-04-25T06:02:22;15.05;;;3.67;;
28070;SDS011;15383;48.408;9.968;2023-04-25T06:04:49;10.85;;;3.63;;
28070;SDS011;15383;48.408;9.968;2023-04-25T06:07:15;6.72;;;2.40;;
28070;SDS011;15383;48.408;9.968;2023-04-25T06:09:40;5.65;;;2.53;;
28070;SDS011;15383;48.408;9.968;2023-04-25T06:12:06;13.20;;;3.38;;
28070;SDS011;15383;48.408;9.968;2023-04-25T06:14:32;9.35;;;2.60;;
28070;SDS011;15383;48.408;9.968;2023-04-25T06:16:58;7.03;;;2.20;;
28070;SDS011;15383;48.408;9.968;2023-04-25T06:19:24;10.63;;;2.30;;
28070;SDS011;15383;48.408;9.968;2023-04-25T06:21:50;3.80;;;2.40;;
28070;SDS011;15383;48.408;9.968;2023-04-25T06:24:15;8.80;;;2.67;;
28070;SDS011;15383;48.408;9.968;2023-04-25T06:26:41;9.13;;;2.60;;
28070;SDS011;15383;48.408;9.968;2023-04-25T06:29:06;15.65;;;2.85;;
28070;SDS011;15383;48.408;9.968;2023-04-25T06:31:32;5.30;;;2.55;;
28070;SDS011;15383;48.408;9.968;2023-04-25T06:33:58;10.00;;;2.15;;
28070;SDS011;15383;48.408;9.968;2023-04-25T06:36:24;7.68;;;2.28;;
28070;SDS011;15383;48.408;9.968;2023-04-25T06:38:52;8.35;;;2.25;;
28070;SDS011;15383;48.408;9.968;2023-04-25T06:41:19;6.55;;;2.15;;
28070;SDS011;15383;48.408;9.968;2023-04-25T06:43:45;3.67;;;1.90;;
28070;SDS011;15383;48.408;9.968;2023-04-25T06:46:10;4.75;;;2.40;;
28070;SDS011;15383;48.408;9.968;2023-04-25T06:48:36;6.65;;;2.30;;
28070;SDS011;15383;48.408;9.968;2023-04-25T06:51:02;5.50;;;2.15;;
28070;SDS011;15383;48.408;9.968;2023-04-25T06:53:27;8.70;;;2.55;;
28070;SDS011;15383;48.408;9.968;2023-04-25T06:55:53;9.30;;;1.83;;
28070;SDS011;15383;48.408;9.968;2023-04-25T06:58:19;9.85;;;2.53;;
28070;SDS011;15383;48.408;9.968;2023-04-25T07:00:45;3.55;;;1.70;;
28070;SDS011;15383;48.408;9.968;2023-04-25T07:03:11;12.38;;;2.25;;
28070;SDS011;15383;48.408;9.968;2023-04-25T07:05:36;8.32;;;2.55;;
28070;SDS011;15383;48.408;9.968;2023-04-25T07:08:02;6.63;;;2.10;;
28070;SDS011;15383;48.408;9.968;2023-04-25T07:10:28;12.38;;;2.50;;
28070;SDS011;15383;48.408;9.968;2023-04-25T07:12:53;9.55;;;1.90;;
28070;SDS011;15383;48.408;9.968;2023-04-25T07:15:19;7.05;;;2.22;;
28070;SDS011;15383;48.408;9.968;2023-04-25T07:17:45;6.28;;;2.03;;
28070;SDS011;15383;48.408;9.968;2023-04-25T07:20:11;3.58;;;1.80;;
28070;SDS011;15383;48.408;9.968;2023-04-25T07:22:36;18.45;;;2.10;;
28070;SDS011;15383;48.408;9.968;2023-04-25T07:25:02;4.47;;;1.65;;
28070;SDS011;15383;48.408;9.968;2023-04-25T07:27:29;5.75;;;1.90;;
28070;SDS011;15383;48.408;9.968;2023-04-25T07:29:55;10.02;;;2.15;;
28070;SDS011;15383;48.408;9.968;2023-04-25T07:32:20;4.85;;;1.73;;
28070;SDS011;15383;48.408;9.968;2023-04-25T07:34:46;6.85;;;1.92;;
28070;SDS011;15383;48.408;9.968;2023-04-25T07:37:12;6.05;;;1.50;;
28070;SDS011;15383;48.408;9.968;2023-04-25T07:39:38;10.82;;;2.00;;
28070;SDS011;15383;48.408;9.968;2023-04-25T07:42:04;8.18;;;1.80;;
28070;SDS011;15383;48.408;9.968;2023-04-25T07:44:32;5.10;;;1.80;;
28070;SDS011;15383;48.408;9.968;2023-04-25T07:47:03;7.05;;;1.80;;
28070;SDS011;15383;48.408;9.968;2023-04-25T07:49:33;5.05;;;1.63;;
28070;SDS011;15383;48.408;9.968;2023-04-25T07:51:59;2.25;;;1.40;;
28070;SDS011;15383;48.408;9.968;2023-04-25T07:54:25;3.30;;;1.90;;
28070;SDS011;15383;48.408;9.968;2023-04-25T07:56:51;6.43;;;1.73;;
28070;SDS011;15383;48.408;9.968;2023-04-25T07:59:16;1.30;;;1.15;;
28070;SDS011;15383;48.408;9.968;2023-04-25T08:01:42;12.35;;;1.35;;
28070;SDS011;15383;48.408;9.968;2023-04-25T08:04:08;12.93;;;1.65;;
28070;SDS011;15383;48.408;9.968;2023-04-25T08:06:33;5.05;;;1.60;;
28070;SDS011;15383;48.408;9.968;2023-04-25T08:08:59;3.75;;;1.40;;
28070;SDS011;15383;48.408;9.968;2023-04-25T08:11:24;2.20;;;1.67;;
28070;SDS011;15383;48.408;9.968;2023-04-25T08:13:50;3.72;;;1.50;;
28070;SDS011;15383;48.408;9.968;2023-04-25T08:16:15;7.32;;;1.60;;
28070;SDS011;15383;48.408;9.968;2023-04-25T08:18:41;3.55;;;1.50;;
28070;SDS011;15383;48.408;9.968;2023-04-25T08:21:06;13.73;;;1.67;;
28070;SDS011;15383;48.408;9.968;2023-04-25T08:23:33;8.05;;;1.75;;
28070;SDS011;15383;48.408;9.968;2023-04-25T08:25:59;9.02;;;1.70;;
28070;SDS011;15383;48.408;9.968;2023-04-25T08:28:25;3.45;;;1.52;;
28070;SDS011;15383;48.408;9.968;2023-04-25T08:30:50;4.90;;;1.85;;
28070;SDS011;15383;48.408;9.968;2023-04-25T08:33:16;5.55;;;1.65;;
28070;SDS011;15383;48.408;9.968;2023-04-25T08:35:42;3.15;;;1.50;;
28070;SDS011;15383;48.408;9.968;2023-04-25T08:38:07;6.38;;;1.42;;
28070;SDS011;15383;48.408;9.968;2023-04-25T08:40:35;2.13;;;1.27;;
28070;SDS011;15383;48.408;9.968;2023-04-25T08:45:34;26.65;;;1.80;;
28070;SDS011;15383;48.408;9.968;2023-04-25T08:48:00;121.70;;;5.13;;
28070;SDS011;15383;48.408;9.968;2023-04-25T08:50:28;54.90;;;3.50;;
28070;SDS011;15383;48.408;9.968;2023-04-25T08:52:55;17.15;;;2.35;;
28070;SDS011;15383;48.408;9.968;2023-04-25T08:55:28;20.70;;;2.72;;
28070;SDS011;15383;48.408;9.968;2023-04-25T08:57:54;16.80;;;1.38;;
28070;SDS011;15383;48.408;9.968;2023-04-25T09:00:21;18.63;;;2.65;;
28070;SDS011;15383;48.408;9.968;2023-04-25T09:02:47;18.63;;;1.95;;
28070;SDS011;15383;48.408;9.968;2023-04-25T09:05:13;7.68;;;1.92;;
28070;SDS011;15383;48.408;9.968;2023-04-25T09:07:39;22.58;;;2.47;;
28070;SDS011;15383;48.408;9.968;2023-04-25T09:10:05;22.02;;;2.47;;
28070;SDS011;15383;48.408;9.968;2023-04-25T09:12:31;7.30;;;1.88;;
28070;SDS011;15383;48.408;9.968;2023-04-25T09:15:09;19.77;;;1.52;;
28070;SDS011;15383;48.408;9.968;2023-04-25T09:17:36;10.05;;;2.25;;
28070;SDS011;15383;48.408;9.968;2023-04-25T09:20:14;34.83;;;1.95;;
28070;SDS011;15383;48.408;9.968;2023-04-25T09:22:40;7.05;;;2.15;;
28070;SDS011;15383;48.408;9.968;2023-04-25T09:25:08;10.95;;;1.80;;
28070;SDS011;15383;48.408;9.968;2023-04-25T09:27:35;9.45;;;2.08;;
28070;SDS011;15383;48.408;9.968;2023-04-25T09:30:01;10.65;;;1.63;;
28070;SDS011;15383;48.408;9.968;2023-04-25T09:32:27;10.25;;;1.90;;
28070;SDS011;15383;48.408;9.968;2023-04-25T09:34:54;16.73;;;1.90;;
28070;SDS011;15383;48.408;9.968;2023-04-25T09:37:22;15.32;;;1.80;;
28070;SDS011;15383;48.408;9.968;2023-04-25T09:39:49;14.75;;;1.48;;
28070;SDS011;15383;48.408;9.968;2023-04-25T09:42:17;13.75;;;1.60;;
28070;SDS011;15383;48.408;9.968;2023-04-25T09:44:43;10.00;;;1.50;;
28070;SDS011;15383;48.408;9.968;2023-04-25T09:47:11;4.05;;;1.30;;
28070;SDS011;15383;48.408;9.968;2023-04-25T09:49:41;16.33;;;1.80;;
28070;SDS011;15383;48.408;9.968;2023-04-25T09:52:08;8.40;;;1.33;;
28070;SDS011;15383;48.408;9.968;2023-04-25T09:54:44;14.75;;;1.40;;
28070;SDS011;15383;48.408;9.968;2023-04-25T09:57:11;11.93;;;1.65;;
28070;SDS011;15383;48.408;9.968;2023-04-25T09:59:47;4.53;;;1.10;;
28070;SDS011;15383;48.408;9.968;2023-04-25T10:02:23;3.30;;;2.10;;
28070;SDS011;15383;48.408;9.968;2023-04-25T10:04:51;8.93;;;1.10;;
28070;SDS011;15383;48.408;9.968;2023-04-25T10:07:20;7.20;;;1.50;;
28070;SDS011;15383;48.408;9.968;2023-04-25T10:09:50;4.15;;;1.40;;
28070;SDS011;15383;48.408;9.968;2023-04-25T10:12:28;2.05;;;1.23;;
28070;SDS011;15383;48.408;9.968;2023-04-25T10:14:54;2.78;;;1.20;;
28070;SDS011;15383;48.408;9.968;2023-04-25T10:17:20;1.80;;;1.10;;
28070;SDS011;15383;48.408;9.968;2023-04-25T10:19:46;4.80;;;1.85;;
28070;SDS011;15383;48.408;9.968;2023-04-25T10:22:20;4.40;;;1.45;;
28070;SDS011;15383;48.408;9.968;2023-04-25T10:24:51;6.10;;;1.80;;
28070;SDS011;15383;48.408;9.968;2023-04-25T10:27:17;5.72;;;1.30;;
28070;SDS011;15383;48.408;9.968;2023-04-25T10:29:43;13.43;;;1.63;;
28070;SDS011;15383;48.408;9.968;2023-04-25T10:32:09;10.45;;;1.35;;
28070;SDS011;15383;48.408;9.968;2023-04-25T10:34:42;5.15;;;1.25;;
28070;SDS011;15383;48.408;9.968;2023-04-25T10:37:11;10.27;;;1.85;;
28070;SDS011;15383;48.408;9.968;2023-04-25T10:39:38;7.57;;;1.42;;
28070;SDS011;15383;48.408;9.968;2023-04-25T10:42:05;7.78;;;1.75;;
28070;SDS011;15383;48.408;9.968;2023-04-25T10:44:32;5.80;;;1.25;;
28070;SDS011;15383;48.408;9.968;2023-04-25T10:46:59;14.05;;;1.60;;
28070;SDS011;15383;48.408;9.968;2023-04-25T11:00:15;17.35;;;1.60;;
28070;SDS011;15383;48.408;9.968;2023-04-25T11:02:41;25.65;;;1.50;;
28070;SDS011;15383;48.408;9.968;2023-04-25T11:05:10;33.92;;;2.20;;
28070;SDS011;15383;48.408;9.968;2023-04-25T11:10:15;20.73;;;2.33;;
28070;SDS011;15383;48.408;9.968;2023-04-25T11:12:40;9.98;;;1.15;;
28070;SDS011;15383;48.408;9.968;2023-04-25T11:15:06;14.35;;;1.58;;
28070;SDS011;15383;48.408;9.968;2023-04-25T11:17:33;8.65;;;1.05;;
28070;SDS011;15383;48.408;9.968;2023-04-25T11:19:59;6.80;;;1.48;;
28070;SDS011;15383;48.408;9.968;2023-04-25T11:22:26;9.30;;;1.88;;
28070;SDS011;15383;48.408;9.968;2023-04-25T11:24:52;7.68;;;1.83;;
28070;SDS011;15383;48.408;9.968;2023-04-25T11:27:18;4.38;;;1.30;;
28070;SDS011;15383;48.408;9.968;2023-04-25T11:29:44;9.48;;;1.40;;
28070;SDS011;15383;48.408;9.968;2023-04-25T11:32:09;4.60;;;1.40;;
28070;SDS011;15383;48.408;9.968;2023-04-25T11:34:35;9.40;;;1.38;;
28070;SDS011;15383;48.408;9.968;2023-04-25T11:37:01;9.20;;;1.30;;
28070;SDS011;15383;48.408;9.968;2023-04-25T11:39:27;4.07;;;1.50;;
28070;SDS011;15383;48.408;9.968;2023-04-25T11:41:53;6.50;;;1.23;;
28070;SDS011;15383;48.408;9.968;2023-04-25T11:44:20;3.78;;;1.20;;
28070;SDS011;15383;48.408;9.968;2023-04-25T11:46:46;4.85;;;1.50;;
28070;SDS011;15383;48.408;9.968;2023-04-25T11:49:15;6.32;;;1.35;;
28070;SDS011;15383;48.408;9.968;2023-04-25T11:51:44;5.53;;;1.23;;
28070;SDS011;15383;48.408;9.968;2023-04-25T11:54:11;11.70;;;1.50;;
28070;SDS011;15383;48.408;9.968;2023-04-25T11:56:37;10.32;;;1.50;;
28070;SDS011;15383;48.408;9.968;2023-04-25T11:59:10;11.75;;;1.40;;
28070;SDS011;15383;48.408;9.968;2023-04-25T12:01:36;3.75;;;1.23;;
28070;SDS011;15383;48.408;9.968;2023-04-25T12:04:10;6.70;;;1.98;;
28070;SDS011;15383;48.408;9.968;2023-04-25T12:06:47;6.38;;;1.17;;
28070;SDS011;15383;48.408;9.968;2023-04-25T12:09:15;25.63;;;1.80;;
28070;SDS011;15383;48.408;9.968;2023-04-25T12:11:56;12.25;;;1.70;;
28070;SDS011;15383;48.408;9.968;2023-04-25T12:16:54;13.40;;;1.60;;
28070;SDS011;15383;48.408;9.968;2023-04-25T12:19:22;9.25;;;2.25;;
28070;SDS011;15383;48.408;9.968;2023-04-25T12:21:49;13.18;;;1.55;;
28070;SDS011;15383;48.408;9.968;2023-04-25T12:24:16;12.30;;;1.40;;
28070;SDS011;15383;48.408;9.968;2023-04-25T12:29:20;7.40;;;1.30;;
28070;SDS011;15383;48.408;9.968;2023-04-25T12:31:47;6.22;;;1.20;;
28070;SDS011;15383;48.408;9.968;2023-04-25T12:34:13;3.22;;;1.33;;
28070;SDS011;15383;48.408;9.968;2023-04-25T12:36:39;7.05;;;1.30;;
28070;SDS011;15383;48.408;9.968;2023-04-25T12:39:05;9.13;;;1.27;;
28070;SDS011;15383;48.408;9.968;2023-04-25T12:41:31;2.28;;;1.30;;
28070;SDS011;15383;48.408;9.968;2023-04-25T12:43:57;8.13;;;1.20;;
28070;SDS011;15383;48.408;9.968;2023-04-25T12:46:22;4.43;;;0.98;;
28070;SDS011;15383;48.408;9.968;2023-04-25T12:48:48;5.60;;;1.27;;
28070;SDS011;15383;48.408;9.968;2023-04-25T12:51:14;6.63;;;1.10;;
28070;SDS011;15383;48.408;9.968;2023-04-25T12:53:40;2.08;;;0.95;;
28070;SDS011;15383;48.408;9.968;2023-04-25T12:56:07;6.85;;;1.55;;
28070;SDS011;15383;48.408;9.968;2023-04-25T12:58:33;9.25;;;1.17;;
28070;SDS011;15383;48.408;9.968;2023-04-25T13:00:58;11.55;;;1.20;;
28070;SDS011;15383;48.408;9.968;2023-04-25T13:03:24;6.13;;;1.40;;
28070;SDS011;15383;48.408;9.968;2023-04-25T13:05:50;3.35;;;1.50;;
28070;SDS011;15383;48.408;9.968;2023-04-25T13:08:17;7.15;;;1.40;;
28070;SDS011;15383;48.408;9.968;2023-04-25T13:10:43;12.77;;;1.30;;
28070;SDS011;15383;48.408;9.968;2023-04-25T13:13:09;7.50;;;1.65;;
28070;SDS011;15383;48.408;9.968;2023-04-25T13:15:34;35.10;;;2.17;;
28070;SDS011;15383;48.408;9.968;2023-04-25T13:18:00;50.60;;;3.10;;
28070;SDS011;15383;48.408;9.968;2023-04-25T13:20:26;45.95;;;3.97;;
28070;SDS011;15383;48.408;9.968;2023-04-25T13:22:51;22.45;;;2.08;;
28070;SDS011;15383;48.408;9.968;2023-04-25T13:25:17;15.98;;;2.30;;
28070;SDS011;15383;48.408;9.968;2023-04-25T13:27:43;45.63;;;3.13;;
28070;SDS011;15383;48.408;9.968;2023-04-25T13:30:09;35.40;;;2.28;;
28070;SDS011;15383;48.408;9.968;2023-04-25T13:32:36;11.45;;;1.60;;
28070;SDS011;15383;48.408;9.968;2023-04-25T13:35:06;17.33;;;1.42;;
28070;SDS011;15383;48.408;9.968;2023-04-25T13:37:34;12.18;;;1.80;;
28070;SDS011;15383;48.408;9.968;2023-04-25T13:40:00;20.20;;;2.08;;
28070;SDS011;15383;48.408;9.968;2023-04-25T13:42:28;17.13;;;1.63;;
28070;SDS011;15383;48.408;9.968;2023-04-25T13:44:54;12.63;;;1.52;;
28070;SDS011;15383;48.408;9.968;2023-04-25T13:47:20;13.05;;;1.63;;
28070;SDS011;15383;48.408;9.968;2023-04-25T13:49:45;22.05;;;1.92;;
28070;SDS011;15383;48.408;9.968;2023-04-25T13:52:11;24.00;;;1.88;;
28070;SDS011;15383;48.408;9.968;2023-04-25T13:54:36;17.08;;;1.58;;
28070;SDS011;15383;48.408;9.968;2023-04-25T13:57:02;15.20;;;2.15;;
28070;SDS011;15383;48.408;9.968;2023-04-25T13:59:27;17.17;;;1.98;;
28070;SDS011;15383;48.408;9.968;2023-04-25T14:01:53;12.13;;;1.95;;
28070;SDS011;15383;48.408;9.968;2023-04-25T14:04:18;13.43;;;1.40;;
28070;SDS011;15383;48.408;9.968;2023-04-25T14:06:44;30.33;;;1.73;;
28070;SDS011;15383;48.408;9.968;2023-04-25T14:09:10;22.80;;;1.52;;
28070;SDS011;15383;48.408;9.968;2023-04-25T14:11:37;28.35;;;2.00;;
28070;SDS011;15383;48.408;9.968;2023-04-25T14:14:03;8.82;;;1.50;;
28070;SDS011;15383;48.408;9.968;2023-04-25T14:16:29;15.23;;;2.15;;
28070;SDS011;15383;48.408;9.968;2023-04-25T14:18:56;20.02;;;2.05;;
28070;SDS011;15383;48.408;9.968;2023-04-25T14:21:22;71.72;;;4.57;;
28070;SDS011;15383;48.408;9.968;2023-04-25T14:23:48;25.10;;;2.50;;
28070;SDS011;15383;48.408;9.968;2023-04-25T14:26:14;30.13;;;2.58;;
28070;SDS011;15383;48.408;9.968;2023-04-25T14:28:39;34.92;;;2.33;;
28070;SDS011;15383;48.408;9.968;2023-04-25T14:31:05;34.88;;;3.33;;
28070;SDS011;15383;48.408;9.968;2023-04-25T14:33:30;28.05;;;1.85;;
28070;SDS011;15383;48.408;9.968;2023-04-25T14:35:56;55.05;;;3.17;;
28070;SDS011;15383;48.408;9.968;2023-04-25T14:38:22;30.67;;;2.65;;
28070;SDS011;15383;48.408;9.968;2023-04-25T14:40:49;45.42;;;3.85;;
28070;SDS011;15383;48.408;9.968;2023-04-25T14:43:15;38.25;;;3.08;;
28070;SDS011;15383;48.408;9.968;2023-04-25T14:45:41;21.63;;;2.47;;
28070;SDS011;15383;48.408;9.968;2023-04-25T14:48:06;22.40;;;2.00;;
28070;SDS011;15383;48.408;9.968;2023-04-25T14:50:32;38.55;;;2.00;;
28070;SDS011;15383;48.408;9.968;2023-04-25T14:52:57;19.35;;;2.20;;
28070;SDS011;15383;48.408;9.968;2023-04-25T14:55:24;28.42;;;2.72;;